createdAt,value
2023-05-22T00:00:40.451Z,5.35
2023-05-22T00:03:43.943Z,5.65
2023-05-22T00:06:50.827Z,5.72
2023-05-22T00:09:55.152Z,6.43
2023-05-22T00:12:58.698Z,6.00
2023-05-22T00:16:03.454Z,5.57
2023-05-22T00:19:07.261Z,4.95
2023-05-22T00:22:10.974Z,5.63
2023-05-22T00:25:14.394Z,6.00
2023-05-22T00:28:17.880Z,5.85
2023-05-22T00:31:23.710Z,5.82
2023-05-22T00:34:27.136Z,5.65
2023-05-22T00:37:31.094Z,6.10
2023-05-22T00:40:34.586Z,6.47
2023-05-22T00:43:40.655Z,5.25
2023-05-22T00:46:45.675Z,6.22
2023-05-22T00:49:49.430Z,5.32
2023-05-22T00:52:52.648Z,4.95
2023-05-22T00:55:57.027Z,5.90
2023-05-22T00:59:01.031Z,5.55
2023-05-22T01:02:06.400Z,5.78
2023-05-22T01:05:13.414Z,6.15
2023-05-22T01:08:17.213Z,5.63
2023-05-22T01:11:28.173Z,6.63
2023-05-22T01:14:42.358Z,5.80
2023-05-22T01:18:11.301Z,6.05
2023-05-22T01:21:23.126Z,5.07
2023-05-22T01:24:54.670Z,6.20
2023-05-22T01:28:13.135Z,5.97
2023-05-22T01:31:21.185Z,5.78
2023-05-22T01:34:28.246Z,5.68
2023-05-22T01:37:32.701Z,5.47
2023-05-22T01:40:37.082Z,5.53
2023-05-22T01:43:41.299Z,5.47
2023-05-22T01:46:46.139Z,5.90
2023-05-22T01:49:49.634Z,5.28
2023-05-22T01:53:09.239Z,5.40
2023-05-22T01:56:18.109Z,5.35
2023-05-22T01:59:30.958Z,5.47
2023-05-22T02:02:40.002Z,5.20
2023-05-22T02:06:07.036Z,5.90
2023-05-22T02:09:12.034Z,5.38
2023-05-22T02:12:17.121Z,5.50
2023-05-22T02:15:21.635Z,5.80
2023-05-22T02:18:30.959Z,5.40
2023-05-22T02:21:37.070Z,5.90
2023-05-22T02:24:42.166Z,5.72
2023-05-22T02:27:49.565Z,5.82
2023-05-22T02:30:53.204Z,4.90
2023-05-22T02:33:57.938Z,5.38
2023-05-22T02:37:03.729Z,5.65
2023-05-22T02:40:10.218Z,5.65
2023-05-22T02:43:13.749Z,5.72
2023-05-22T02:46:17.303Z,5.43
2023-05-22T02:49:22.253Z,6.28
2023-05-22T02:52:25.873Z,6.97
2023-05-22T02:55:32.262Z,7.10
2023-05-22T02:58:35.960Z,6.03
2023-05-22T03:01:39.837Z,6.47
2023-05-22T03:04:47.165Z,6.20
2023-05-22T03:07:52.910Z,6.22
2023-05-22T03:10:58.925Z,6.15
2023-05-22T03:14:02.363Z,6.80
2023-05-22T03:17:06.899Z,6.07
2023-05-22T03:20:18.980Z,5.82
2023-05-22T03:23:25.208Z,6.13
2023-05-22T03:26:29.529Z,6.10
2023-05-22T03:29:33.987Z,5.35
2023-05-22T03:32:38.382Z,5.88
2023-05-22T03:35:44.654Z,6.35
2023-05-22T03:38:49.439Z,6.30
2023-05-22T03:41:53.095Z,6.10
2023-05-22T03:44:57.205Z,6.32
2023-05-22T03:48:02.121Z,7.28
2023-05-22T03:51:08.581Z,5.75
2023-05-22T03:54:12.190Z,6.15
2023-05-22T03:57:20.063Z,5.97
2023-05-22T04:00:25.788Z,6.15
2023-05-22T04:03:30.384Z,5.43
2023-05-22T04:06:43.019Z,6.10
2023-05-22T04:09:49.274Z,5.72
2023-05-22T04:12:53.084Z,6.15
2023-05-22T04:15:56.893Z,5.88
2023-05-22T04:19:01.572Z,6.05
2023-05-22T04:22:07.919Z,6.45
2023-05-22T04:25:11.657Z,5.93
2023-05-22T04:28:17.676Z,6.57
2023-05-22T04:31:23.538Z,6.95
2023-05-22T04:34:28.665Z,6.32
2023-05-22T04:37:45.614Z,6.28
2023-05-22T04:40:53.387Z,6.60
2023-05-22T04:43:56.592Z,6.00
2023-05-22T04:47:01.878Z,6.72
2023-05-22T04:50:05.906Z,6.07
2023-05-22T04:53:12.646Z,5.90
2023-05-22T04:56:36.763Z,6.68
2023-05-22T04:59:59.554Z,6.60
2023-05-22T05:03:03.451Z,6.65
2023-05-22T05:06:08.443Z,6.40
2023-05-22T05:09:15.913Z,6.72
2023-05-22T05:12:19.671Z,7.40
2023-05-22T05:15:24.989Z,7.30
2023-05-22T05:18:53.661Z,6.30
2023-05-22T05:22:09.580Z,7.00
2023-05-22T05:25:46.744Z,7.22
2023-05-22T05:28:51.466Z,7.53
2023-05-22T05:31:56.047Z,7.03
2023-05-22T05:35:11.890Z,6.85
2023-05-22T05:38:25.411Z,6.72
2023-05-22T05:41:31.348Z,6.10
2023-05-22T05:44:39.683Z,7.15
2023-05-22T05:47:44.057Z,7.32
2023-05-22T05:50:49.151Z,8.75
2023-05-22T05:53:52.402Z,8.55
2023-05-22T05:56:59.354Z,7.35
2023-05-22T06:00:05.319Z,6.30
2023-05-22T06:03:19.435Z,6.97
2023-05-22T06:06:35.789Z,7.38
2023-05-22T06:09:51.707Z,6.10
2023-05-22T06:13:23.026Z,6.55
2023-05-22T06:16:30.025Z,6.72
2023-05-22T06:19:37.471Z,6.53
2023-05-22T06:22:41.164Z,6.25
2023-05-22T06:25:45.341Z,6.97
2023-05-22T06:28:59.796Z,7.13
2023-05-22T06:32:13.692Z,6.75
2023-05-22T06:35:20.861Z,6.55
2023-05-22T06:38:27.765Z,7.10
2023-05-22T06:41:33.693Z,6.00
2023-05-22T06:44:42.298Z,6.18
2023-05-22T06:47:46.205Z,6.70
2023-05-22T06:51:16.666Z,5.95
2023-05-22T06:54:52.686Z,7.68
2023-05-22T06:58:24.718Z,7.53
2023-05-22T07:01:30.417Z,7.10
2023-05-22T07:04:43.985Z,6.88
2023-05-22T07:07:51.107Z,6.55
2023-05-22T07:11:01.062Z,7.00
2023-05-22T07:14:05.022Z,7.50
2023-05-22T07:17:12.603Z,6.88
2023-05-22T07:20:21.416Z,6.72
2023-05-22T07:23:36.961Z,6.45
2023-05-22T07:26:46.826Z,7.45
2023-05-22T07:29:52.215Z,6.70
2023-05-22T07:32:57.987Z,7.53
2023-05-22T07:36:01.925Z,7.03
2023-05-22T07:39:07.513Z,6.95
2023-05-22T07:42:21.836Z,6.55
2023-05-22T07:45:35.051Z,7.10
2023-05-22T07:48:45.173Z,7.32
2023-05-22T07:51:49.668Z,6.60
2023-05-22T07:54:54.675Z,6.85
2023-05-22T07:58:04.293Z,6.50
2023-05-22T08:01:19.551Z,6.75
2023-05-22T08:04:24.555Z,6.43
2023-05-22T08:07:30.653Z,6.45
2023-05-22T08:10:47.142Z,6.53
2023-05-22T08:14:03.305Z,6.38
2023-05-22T08:17:10.196Z,6.55
2023-05-22T08:20:17.504Z,5.80
2023-05-22T08:23:21.258Z,6.40
2023-05-22T08:26:50.161Z,6.07
2023-05-22T08:29:56.820Z,6.07
2023-05-22T08:33:05.107Z,5.85
2023-05-22T08:36:14.481Z,5.30
2023-05-22T08:39:20.954Z,6.05
2023-05-22T08:42:24.539Z,5.55
2023-05-22T08:45:30.080Z,5.10
2023-05-22T08:48:34.633Z,5.18
2023-05-22T08:51:43.767Z,5.50
2023-05-22T08:54:55.388Z,5.15
2023-05-22T08:58:01.636Z,5.32
2023-05-22T09:01:21.529Z,5.25
2023-05-22T09:04:29.838Z,4.88
2023-05-22T09:07:41.409Z,4.85
2023-05-22T09:10:47.494Z,4.95
2023-05-22T09:13:52.398Z,5.10
2023-05-22T09:16:59.601Z,4.70
2023-05-22T09:20:08.720Z,5.00
2023-05-22T09:23:15.623Z,5.18
2023-05-22T09:26:20.688Z,5.07
2023-05-22T09:29:27.640Z,4.95
2023-05-22T09:32:31.931Z,5.35
2023-05-22T09:35:39.663Z,5.78
2023-05-22T09:38:47.994Z,5.25
2023-05-22T09:41:54.365Z,4.95
2023-05-22T09:44:59.217Z,4.78
2023-05-22T09:48:02.981Z,5.05
2023-05-22T09:51:21.561Z,4.57
2023-05-22T09:54:43.685Z,5.07
2023-05-22T09:57:52.001Z,4.88
2023-05-22T10:00:57.743Z,4.88
2023-05-22T10:04:03.925Z,4.78
2023-05-22T10:07:08.051Z,4.82
2023-05-22T10:10:15.875Z,4.72
2023-05-22T10:13:20.944Z,3.95
2023-05-22T10:16:25.913Z,5.00
2023-05-22T10:19:31.409Z,4.38
2023-05-22T10:22:36.785Z,4.75
2023-05-22T10:25:42.193Z,4.78
2023-05-22T10:28:55.740Z,4.90
2023-05-22T10:32:11.028Z,4.95
2023-05-22T10:35:33.844Z,4.65
2023-05-22T10:39:07.569Z,4.32
2023-05-22T10:42:31.765Z,4.25
2023-05-22T10:45:37.829Z,5.07
2023-05-22T10:48:51.784Z,5.05
2023-05-22T10:52:10.444Z,4.68
2023-05-22T10:55:14.968Z,3.60
2023-05-22T10:58:27.467Z,3.95
2023-05-22T11:01:40.538Z,3.80
2023-05-22T11:04:52.361Z,4.10
2023-05-22T11:08:37.427Z,4.35
2023-05-22T11:11:43.506Z,3.80
2023-05-22T11:14:56.925Z,4.20
2023-05-22T11:18:15.690Z,4.63
2023-05-22T11:21:25.780Z,3.88
2023-05-22T11:24:37.389Z,4.03
2023-05-22T11:27:59.444Z,4.40
2023-05-22T11:31:06.994Z,4.22
2023-05-22T11:34:18.569Z,4.43
2023-05-22T11:37:25.215Z,3.80
2023-05-22T11:40:32.172Z,4.18
2023-05-22T11:43:39.078Z,3.60
2023-05-22T11:46:56.449Z,3.45
2023-05-22T11:50:40.402Z,3.80
2023-05-22T11:53:48.024Z,4.00
2023-05-22T11:56:57.165Z,4.13
2023-05-22T12:00:00.994Z,4.53
2023-05-22T12:03:10.948Z,4.22
2023-05-22T12:06:21.536Z,3.95
2023-05-22T12:09:30.939Z,3.67
2023-05-22T12:12:41.694Z,4.38
2023-05-22T12:16:00.745Z,3.92
2023-05-22T12:19:18.910Z,4.72
2023-05-22T12:22:35.050Z,4.30
2023-05-22T12:25:38.325Z,3.75
2023-05-22T12:28:47.744Z,3.53
2023-05-22T12:32:09.503Z,4.22
2023-05-22T12:35:18.345Z,3.95
2023-05-22T12:38:34.743Z,3.45
2023-05-22T12:41:38.837Z,3.30
2023-05-22T12:44:58.265Z,3.67
2023-05-22T12:48:19.282Z,3.70
2023-05-22T12:51:32.091Z,3.70
2023-05-22T12:54:36.946Z,3.80
2023-05-22T12:57:43.453Z,3.47
2023-05-22T13:00:47.403Z,3.25
2023-05-22T13:03:55.135Z,3.85
2023-05-22T13:07:00.012Z,3.50
2023-05-22T13:10:17.580Z,3.72
2023-05-22T13:13:20.931Z,3.40
2023-05-22T13:16:24.448Z,3.65
2023-05-22T13:19:28.130Z,3.20
2023-05-22T13:22:34.180Z,3.95
2023-05-22T13:25:46.009Z,3.08
2023-05-22T13:28:49.412Z,3.30
2023-05-22T13:31:53.095Z,3.60
2023-05-22T13:34:59.238Z,2.97
2023-05-22T13:38:04.213Z,3.63
2023-05-22T13:41:07.824Z,3.60
2023-05-22T13:44:11.469Z,3.15
2023-05-22T13:47:17.650Z,3.33
2023-05-22T13:50:21.162Z,3.53
2023-05-22T13:53:29.056Z,3.08
2023-05-22T13:56:34.499Z,3.72
2023-05-22T13:59:46.378Z,3.47
2023-05-22T14:02:50.113Z,3.30
2023-05-22T14:05:53.757Z,3.38
2023-05-22T14:09:00.318Z,3.30
2023-05-22T14:12:08.777Z,3.90
2023-05-22T14:15:17.896Z,3.63
2023-05-22T14:18:23.745Z,3.60
2023-05-22T14:21:27.263Z,3.45
2023-05-22T14:24:33.063Z,4.00
2023-05-22T14:27:36.388Z,3.42
2023-05-22T14:30:40.933Z,3.85
2023-05-22T14:33:45.462Z,3.80
2023-05-22T14:36:48.782Z,3.42
2023-05-22T14:39:53.823Z,3.38
2023-05-22T14:43:08.168Z,4.20
2023-05-22T14:46:12.578Z,3.78
2023-05-22T14:49:16.647Z,3.90
2023-05-22T14:52:20.045Z,3.88
2023-05-22T14:55:28.367Z,3.72
2023-05-22T14:58:31.833Z,3.88
2023-05-22T15:01:37.151Z,2.97
2023-05-22T15:04:40.968Z,3.60
2023-05-22T15:07:48.399Z,3.67
2023-05-22T15:10:55.290Z,3.85
2023-05-22T15:14:01.305Z,4.10
2023-05-22T15:17:04.847Z,4.45
2023-05-22T15:20:12.876Z,3.95
2023-05-22T15:23:16.488Z,3.63
2023-05-22T15:26:38.520Z,3.35
2023-05-22T15:29:47.019Z,3.72
2023-05-22T15:32:50.608Z,3.63
2023-05-22T15:35:54.080Z,3.65
2023-05-22T15:38:57.435Z,3.83
2023-05-22T15:42:06.825Z,3.60
2023-05-22T15:45:13.828Z,4.05
2023-05-22T15:48:21.960Z,3.50
2023-05-22T15:51:27.708Z,3.50
2023-05-22T15:54:33.190Z,4.05
2023-05-22T15:57:41.213Z,4.10
2023-05-22T16:00:49.287Z,4.10
2023-05-22T16:03:57.418Z,3.40
2023-05-22T16:07:01.118Z,4.32
2023-05-22T16:10:09.429Z,3.63
2023-05-22T16:13:15.082Z,4.20
2023-05-22T16:16:18.813Z,4.20
2023-05-22T16:19:36.395Z,4.72
2023-05-22T16:22:48.177Z,4.38
2023-05-22T16:25:54.514Z,3.92
2023-05-22T16:29:07.693Z,4.28
2023-05-22T16:32:11.456Z,4.20
2023-05-22T16:35:19.083Z,4.07
2023-05-22T16:38:24.160Z,4.65
2023-05-22T16:41:30.052Z,3.92
2023-05-22T16:44:40.581Z,4.00
2023-05-22T16:47:44.313Z,4.30
2023-05-22T16:50:50.603Z,3.65
2023-05-22T16:53:57.148Z,4.15
2023-05-22T16:57:15.074Z,3.65
2023-05-22T17:00:23.606Z,3.75
2023-05-22T17:03:27.213Z,4.13
2023-05-22T17:06:31.884Z,4.75
2023-05-22T17:09:37.690Z,4.20
2023-05-22T17:12:43.877Z,5.13
2023-05-22T17:15:54.294Z,4.22
2023-05-22T17:18:58.038Z,4.20
2023-05-22T17:22:01.457Z,3.67
2023-05-22T17:25:09.659Z,3.55
2023-05-22T17:28:20.988Z,4.60
2023-05-22T17:31:25.982Z,4.00
2023-05-22T17:34:32.331Z,4.55
2023-05-22T17:37:41.680Z,4.10
2023-05-22T17:40:47.681Z,4.03
2023-05-22T17:43:51.676Z,3.80
2023-05-22T17:46:58.812Z,4.80
2023-05-22T17:50:03.217Z,4.10
2023-05-22T17:53:06.769Z,4.57
2023-05-22T17:56:10.284Z,3.78
2023-05-22T17:59:13.468Z,5.00
2023-05-22T18:02:19.063Z,4.53
2023-05-22T18:05:24.696Z,4.35
2023-05-22T18:08:28.520Z,4.18
2023-05-22T18:12:02.230Z,4.72
2023-05-22T18:15:17.300Z,4.05
2023-05-22T18:19:06.175Z,4.25
2023-05-22T18:23:15.795Z,4.35
2023-05-22T18:32:53.290Z,4.10
2023-05-22T18:53:06.375Z,4.97
2023-05-22T19:02:59.320Z,4.07
2023-05-22T19:18:12.830Z,4.63
2023-05-22T19:36:47.713Z,4.60
2023-05-22T19:50:03.730Z,4.93
2023-05-22T19:53:19.718Z,4.72
2023-05-22T19:56:40.256Z,4.90
2023-05-22T19:59:52.334Z,5.72
2023-05-22T20:13:11.403Z,5.22
2023-05-22T20:22:18.325Z,5.00
2023-05-22T20:25:26.105Z,4.90
2023-05-22T20:28:33.335Z,4.50
2023-05-22T20:36:26.937Z,5.00
2023-05-22T20:39:50.446Z,4.88
2023-05-22T20:43:15.694Z,4.38
2023-05-22T20:46:47.909Z,6.95
2023-05-22T20:50:28.705Z,5.38
2023-05-22T20:54:32.016Z,5.07
2023-05-22T20:58:41.787Z,4.43
2023-05-22T21:13:04.800Z,5.40
2023-05-22T21:27:33.826Z,5.55
2023-05-22T21:31:54.557Z,4.90
2023-05-22T21:41:38.987Z,5.55
2023-05-22T21:46:12.094Z,5.80
2023-05-22T22:00:12.944Z,5.20
2023-05-22T22:04:10.495Z,5.45
2023-05-22T22:08:02.368Z,5.70
2023-05-22T22:11:53.184Z,6.13
2023-05-22T22:21:08.866Z,7.05
2023-05-22T22:25:58.885Z,6.72
2023-05-22T22:35:21.559Z,5.75
2023-05-22T22:38:53.271Z,5.85
2023-05-22T22:42:21.215Z,5.55
2023-05-22T22:45:51.783Z,5.50
2023-05-22T22:49:43.923Z,5.53
2023-05-22T22:53:00.595Z,5.85
2023-05-22T22:56:20.220Z,6.28
2023-05-22T23:04:36.259Z,6.20
2023-05-22T23:07:57.372Z,5.32
2023-05-22T23:12:27.468Z,6.47
2023-05-22T23:15:51.361Z,6.00
2023-05-22T23:19:31.787Z,6.32
2023-05-22T23:23:04.725Z,5.25
2023-05-22T23:30:20.483Z,7.25
2023-05-22T23:33:28.889Z,5.55
2023-05-22T23:40:42.950Z,6.15
2023-05-22T23:44:03.654Z,6.55
2023-05-22T23:47:31.230Z,6.07
2023-05-22T23:55:33.959Z,6.35
2023-05-22T23:58:49.398Z,5.97
